createdAt,value
2023-03-26T00:03:08.886Z,1422.00
2023-03-26T00:07:08.821Z,1413.00
2023-03-26T00:11:08.853Z,1413.00
2023-03-26T00:15:08.963Z,1411.00
2023-03-26T00:19:08.998Z,1428.00
2023-03-26T00:23:08.989Z,1404.00
2023-03-26T00:27:08.985Z,1412.00
2023-03-26T00:31:09.035Z,1400.00
2023-03-26T00:35:09.114Z,1407.00
2023-03-26T00:39:09.264Z,1408.00
2023-03-26T00:43:09.177Z,1414.00
2023-03-26T00:47:09.202Z,1402.00
2023-03-26T00:51:09.248Z,1397.00
2023-03-26T00:55:09.218Z,1398.00
2023-03-26T00:59:09.228Z,1399.00
2023-03-26T01:03:09.290Z,1395.00
2023-03-26T01:07:09.184Z,1395.00
2023-03-26T01:11:09.173Z,1374.00
2023-03-26T01:15:09.238Z,1386.00
2023-03-26T01:19:09.268Z,1387.00
2023-03-26T01:23:09.245Z,1374.00
2023-03-26T01:27:09.228Z,1372.00
2023-03-26T01:31:09.255Z,1362.00
2023-03-26T01:35:09.273Z,1369.00
2023-03-26T01:39:09.366Z,1356.00
2023-03-26T01:43:09.430Z,1366.00
2023-03-26T01:47:09.423Z,1360.00
2023-03-26T01:51:09.493Z,1369.00
2023-03-26T01:55:09.566Z,1362.00
2023-03-26T01:59:09.550Z,1349.00
2023-03-26T02:03:09.654Z,1345.00
2023-03-26T02:07:09.533Z,1360.00
2023-03-26T02:11:09.886Z,1353.00
2023-03-26T02:15:09.547Z,1347.00
2023-03-26T02:19:09.564Z,1348.00
2023-03-26T02:23:09.562Z,1338.00
2023-03-26T02:27:09.586Z,1333.00
2023-03-26T02:31:09.680Z,1333.00
2023-03-26T02:35:09.670Z,1317.00
2023-03-26T16:55:22.878Z,1212.00
2023-03-26T16:59:23.257Z,1219.00
2023-03-26T17:03:23.350Z,1202.00
2023-03-26T17:07:23.527Z,1203.00
2023-03-26T17:11:23.441Z,1213.00
2023-03-26T17:15:23.469Z,1205.00
2023-03-26T22:47:24.613Z,1198.00
